Time;durP1;ratioP1;P1;durP2;ratioP2;P2;SDS_P1;SDS_P2;PMS_P1;PMS_P2;Temp;Humidity;BMP_temperature;BMP_pressure;BME280_temperature;BME280_humidity;BME280_pressure;Samples;Min_cycle;Max_cycle;Signal;HPM_P1;HPM_P2
2023/08/31 00:01:18;;;;;;;4.95;2.53;;;;;;;;;;8273439;28;20029;-74
2023/08/31 00:05:19;;;;;;;6.93;2.22;;;;;;;;;;8286307;28;20029;-74
2023/08/31 00:09:19;;;;;;;3.53;2.25;;;;;;;;;;8271528;28;20021;-74
2023/08/31 00:13:20;;;;;;;2.83;1.93;;;;;;;;;;8272462;28;20028;-74
2023/08/31 00:17:20;;;;;;;4.13;2.40;;;;;;;;;;8270163;28;20038;-74
2023/08/31 00:21:21;;;;;;;4.45;2.08;;;;;;;;;;8288237;28;20275;-75
2023/08/31 00:25:21;;;;;;;5.35;2.70;;;;;;;;;;8277572;28;20021;-75
2023/08/31 00:29:23;;;;;;;3.80;2.38;;;;;;;;;;8277228;28;20024;-74
2023/08/31 00:33:25;;;;;;;3.22;2.85;;;;;;;;;;8308945;28;20037;-75
2023/08/31 00:37:26;;;;;;;8.48;3.00;;;;;;;;;;8277390;28;20028;-75
2023/08/31 00:41:26;;;;;;;6.97;3.25;;;;;;;;;;8277176;28;20108;-75
2023/08/31 00:45:27;;;;;;;4.43;2.90;;;;;;;;;;8276764;28;20067;-74
2023/08/31 00:49:28;;;;;;;4.72;2.92;;;;;;;;;;8304097;28;20035;-74
2023/08/31 00:53:29;;;;;;;7.25;3.38;;;;;;;;;;8275278;28;20140;-74
2023/08/31 00:57:29;;;;;;;6.38;3.45;;;;;;;;;;8278828;28;20113;-74
2023/08/31 01:01:37;;;;;;;4.88;3.67;;;;;;;;;;8280344;28;20525;-75
2023/08/31 01:05:47;;;;;;;10.02;3.53;;;;;;;;;;8278188;28;20048;-75
2023/08/31 01:10:01;;;;;;;6.75;3.63;;;;;;;;;;8279396;28;20117;-75
2023/08/31 01:14:08;;;;;;;6.00;4.07;;;;;;;;;;8276644;28;20756;-74
2023/08/31 01:18:10;;;;;;;6.18;4.28;;;;;;;;;;8275471;28;20037;-75
2023/08/31 01:22:13;;;;;;;5.90;3.65;;;;;;;;;;8276407;28;20148;-75
2023/08/31 01:26:13;;;;;;;3.93;3.30;;;;;;;;;;8276082;28;20036;-74
2023/08/31 01:30:14;;;;;;;5.07;3.90;;;;;;;;;;8277468;28;20025;-75
2023/08/31 01:34:14;;;;;;;10.43;4.40;;;;;;;;;;8276117;28;20018;-75
2023/08/31 01:38:17;;;;;;;6.57;3.85;;;;;;;;;;8273814;28;20104;-74
2023/08/31 01:42:18;;;;;;;10.07;4.38;;;;;;;;;;8274947;28;20119;-75
2023/08/31 01:46:19;;;;;;;6.03;3.73;;;;;;;;;;8274102;28;20480;-75
2023/08/31 01:50:19;;;;;;;5.78;4.20;;;;;;;;;;8275763;28;20296;-75
2023/08/31 01:54:19;;;;;;;6.97;4.10;;;;;;;;;;8275608;28;20047;-75
2023/08/31 01:58:19;;;;;;;6.45;4.20;;;;;;;;;;8305097;28;20813;-74
2023/08/31 02:02:19;;;;;;;6.40;4.00;;;;;;;;;;8275589;28;20045;-74
2023/08/31 02:06:20;;;;;;;5.65;3.97;;;;;;;;;;8276157;28;20034;-74
2023/08/31 02:10:20;;;;;;;10.27;4.10;;;;;;;;;;8274572;28;20052;-74
2023/08/31 02:14:20;;;;;;;6.00;3.72;;;;;;;;;;8277734;28;20030;-74
2023/08/31 02:18:20;;;;;;;5.40;3.85;;;;;;;;;;8276921;28;20439;-74
2023/08/31 02:22:21;;;;;;;4.97;3.30;;;;;;;;;;8276400;28;20036;-74
2023/08/31 02:26:21;;;;;;;5.13;3.90;;;;;;;;;;8274229;28;20052;-74
2023/08/31 02:30:22;;;;;;;5.50;4.15;;;;;;;;;;8277222;28;20794;-75
2023/08/31 02:34:22;;;;;;;6.55;3.80;;;;;;;;;;8277817;28;21044;-74
2023/08/31 02:38:23;;;;;;;4.53;3.53;;;;;;;;;;8275461;28;20053;-74
2023/08/31 02:42:23;;;;;;;6.30;4.20;;;;;;;;;;8274013;28;20049;-74
2023/08/31 02:46:24;;;;;;;4.60;3.80;;;;;;;;;;8277908;28;20537;-75
2023/08/31 02:50:24;;;;;;;5.05;3.60;;;;;;;;;;8275772;28;20087;-74
2023/08/31 02:54:24;;;;;;;9.25;4.07;;;;;;;;;;8274520;28;20096;-74
2023/08/31 02:58:24;;;;;;;6.27;3.57;;;;;;;;;;8273733;28;20025;-74
2023/08/31 03:02:25;;;;;;;4.20;3.50;;;;;;;;;;8289461;28;20041;-74
2023/08/31 03:06:25;;;;;;;5.80;3.33;;;;;;;;;;8273329;28;20034;-74
2023/08/31 03:10:27;;;;;;;4.90;3.45;;;;;;;;;;8274991;28;20144;-74
2023/08/31 03:14:27;;;;;;;3.72;3.17;;;;;;;;;;8275945;28;20055;-74
2023/08/31 03:18:27;;;;;;;4.22;3.10;;;;;;;;;;8275491;28;20057;-74
2023/08/31 03:22:28;;;;;;;4.97;3.17;;;;;;;;;;8274515;28;20834;-74
2023/08/31 03:26:28;;;;;;;4.90;3.05;;;;;;;;;;8273519;28;20083;-74
2023/08/31 03:30:28;;;;;;;3.75;2.90;;;;;;;;;;8282422;28;20045;-74
2023/08/31 03:34:31;;;;;;;6.05;3.67;;;;;;;;;;8274305;28;20047;-74
2023/08/31 03:38:32;;;;;;;4.83;3.40;;;;;;;;;;8277212;28;20052;-74
2023/08/31 03:42:33;;;;;;;5.53;3.33;;;;;;;;;;8274747;28;20037;-74
2023/08/31 03:46:33;;;;;;;5.63;3.38;;;;;;;;;;8272862;28;20038;-74
2023/08/31 03:50:34;;;;;;;4.55;3.38;;;;;;;;;;8279412;28;21134;-74
2023/08/31 03:54:34;;;;;;;7.03;3.40;;;;;;;;;;8275746;28;20025;-74
2023/08/31 03:58:34;;;;;;;7.32;3.58;;;;;;;;;;8280863;28;20152;-73
2023/08/31 04:02:35;;;;;;;6.00;3.58;;;;;;;;;;8278939;28;20045;-74
2023/08/31 04:06:35;;;;;;;4.65;3.58;;;;;;;;;;8281307;28;20022;-73
2023/08/31 04:10:36;;;;;;;6.72;3.33;;;;;;;;;;8281855;28;20107;-73
2023/08/31 04:14:36;;;;;;;9.43;3.00;;;;;;;;;;8278538;28;20108;-74
2023/08/31 04:18:36;;;;;;;8.18;3.25;;;;;;;;;;8283997;28;20483;-73
2023/08/31 04:22:36;;;;;;;6.50;3.10;;;;;;;;;;8289462;28;20406;-74
2023/08/31 04:26:37;;;;;;;6.57;3.00;;;;;;;;;;8284225;28;20133;-73
2023/08/31 04:30:37;;;;;;;7.25;3.22;;;;;;;;;;8313253;28;20056;-73
2023/08/31 04:34:37;;;;;;;6.95;3.13;;;;;;;;;;8284468;28;20060;-74
2023/08/31 04:38:38;;;;;;;6.63;3.03;;;;;;;;;;8305309;28;20025;-73
2023/08/31 04:42:39;;;;;;;11.05;3.65;;;;;;;;;;8299204;28;20578;-74
2023/08/31 04:46:42;;;;;;;10.80;4.13;;;;;;;;;;8326437;28;20510;-74
2023/08/31 04:50:42;;;;;;;11.75;3.95;;;;;;;;;;8288968;28;21077;-74
2023/08/31 04:54:42;;;;;;;11.10;3.65;;;;;;;;;;8280114;28;20050;-73
2023/08/31 04:58:42;;;;;;;9.43;3.50;;;;;;;;;;8279583;28;20053;-72
2023/08/31 05:02:43;;;;;;;15.50;4.63;;;;;;;;;;8280518;28;20034;-72
2023/08/31 05:06:43;;;;;;;9.55;3.47;;;;;;;;;;8280931;28;20044;-73
2023/08/31 05:10:44;;;;;;;13.57;4.27;;;;;;;;;;8304275;28;20029;-76
2023/08/31 05:14:45;;;;;;;20.55;4.57;;;;;;;;;;8316825;28;20268;-75
2023/08/31 05:18:45;;;;;;;11.87;4.67;;;;;;;;;;8282256;28;20049;-75
2023/08/31 05:22:46;;;;;;;14.80;4.38;;;;;;;;;;8279029;28;21140;-75
2023/08/31 05:26:46;;;;;;;14.77;4.50;;;;;;;;;;8280566;28;20437;-74
2023/08/31 05:30:53;;;;;;;18.30;4.57;;;;;;;;;;8276876;28;20078;-76
2023/08/31 05:34:53;;;;;;;12.95;4.50;;;;;;;;;;8282442;28;20056;-76
2023/08/31 05:38:53;;;;;;;13.68;3.92;;;;;;;;;;8280275;28;20022;-75
2023/08/31 05:42:53;;;;;;;12.35;3.17;;;;;;;;;;8311199;28;20029;-76
2023/08/31 05:46:54;;;;;;;10.18;3.20;;;;;;;;;;8305732;28;20037;-75
2023/08/31 05:50:55;;;;;;;12.90;3.00;;;;;;;;;;8278206;28;20103;-76
2023/08/31 05:54:55;;;;;;;6.78;2.30;;;;;;;;;;8302015;28;20026;-76
2023/08/31 05:58:58;;;;;;;6.03;2.20;;;;;;;;;;8303834;28;20037;-76
2023/08/31 06:02:58;;;;;;;9.30;2.38;;;;;;;;;;8297387;28;20132;-76
2023/08/31 06:06:58;;;;;;;8.18;2.42;;;;;;;;;;8297246;28;20033;-76
2023/08/31 06:11:00;;;;;;;9.50;2.63;;;;;;;;;;8357167;28;20022;-78
2023/08/31 06:15:00;;;;;;;7.80;2.00;;;;;;;;;;8321775;28;20951;-76
2023/08/31 06:19:00;;;;;;;3.58;1.73;;;;;;;;;;8281589;28;20037;-75
2023/08/31 06:23:00;;;;;;;7.40;2.42;;;;;;;;;;8316671;28;20053;-79
2023/08/31 06:27:01;;;;;;;6.13;1.98;;;;;;;;;;8321218;28;20040;-76
2023/08/31 06:31:06;;;;;;;7.38;2.20;;;;;;;;;;8322307;28;20044;-80
2023/08/31 06:35:06;;;;;;;4.35;1.50;;;;;;;;;;8332843;28;20085;-76
2023/08/31 06:39:07;;;;;;;4.07;1.65;;;;;;;;;;8325916;28;20029;-77
2023/08/31 06:43:07;;;;;;;2.67;1.40;;;;;;;;;;8319029;28;20037;-76
2023/08/31 06:47:07;;;;;;;4.20;1.70;;;;;;;;;;8340189;28;20076;-76
2023/08/31 06:51:07;;;;;;;6.47;1.90;;;;;;;;;;8299230;28;20060;-76
2023/08/31 06:55:17;;;;;;;5.38;1.45;;;;;;;;;;8291549;28;20049;-77
2023/08/31 06:59:17;;;;;;;5.50;1.60;;;;;;;;;;8310591;28;20029;-77
2023/08/31 07:03:18;;;;;;;3.63;1.65;;;;;;;;;;8327788;28;20056;-76
2023/08/31 07:07:18;;;;;;;3.63;1.67;;;;;;;;;;8291712;28;20036;-79
2023/08/31 07:11:18;;;;;;;5.43;1.60;;;;;;;;;;8321130;28;20021;-79
2023/08/31 07:15:19;;;;;;;5.75;1.80;;;;;;;;;;8322245;28;20030;-79
2023/08/31 07:19:19;;;;;;;3.78;1.70;;;;;;;;;;8319626;28;20184;-78
2023/08/31 07:23:19;;;;;;;4.85;1.80;;;;;;;;;;8295660;28;20028;-78
2023/08/31 07:27:25;;;;;;;4.50;1.80;;;;;;;;;;8307289;28;20091;-80
2023/08/31 07:31:25;;;;;;;3.40;1.45;;;;;;;;;;8305762;28;20046;-78
2023/08/31 07:35:26;;;;;;;5.50;1.80;;;;;;;;;;8296374;28;20098;-76
2023/08/31 07:39:27;;;;;;;4.13;1.70;;;;;;;;;;8326375;28;20029;-77
2023/08/31 07:43:27;;;;;;;11.27;1.95;;;;;;;;;;8320061;28;20085;-79
2023/08/31 07:47:28;;;;;;;6.22;1.75;;;;;;;;;;8325223;28;20493;-77
2023/08/31 07:51:30;;;;;;;3.87;1.50;;;;;;;;;;8356535;28;20028;-78
2023/08/31 07:55:31;;;;;;;5.57;2.00;;;;;;;;;;8338495;28;20290;-80
2023/08/31 07:59:44;;;;;;;7.13;1.67;;;;;;;;;;8340283;28;20442;-79
2023/08/31 08:03:45;;;;;;;3.67;1.80;;;;;;;;;;8313269;28;20029;-78
2023/08/31 08:07:45;;;;;;;4.70;1.50;;;;;;;;;;8331274;28;20034;-78
2023/08/31 08:11:45;;;;;;;6.43;1.83;;;;;;;;;;8350869;28;20025;-80
2023/08/31 08:15:46;;;;;;;3.63;1.70;;;;;;;;;;8327656;28;20046;-77
2023/08/31 08:19:46;;;;;;;3.40;1.92;;;;;;;;;;8332143;28;20053;-78
2023/08/31 08:23:50;;;;;;;4.47;1.83;;;;;;;;;;8341571;28;20098;-78
2023/08/31 08:27:51;;;;;;;4.20;1.60;;;;;;;;;;8348422;28;20280;-77
2023/08/31 08:31:53;;;;;;;6.32;2.00;;;;;;;;;;8326957;28;20029;-79
2023/08/31 08:35:56;;;;;;;5.65;1.80;;;;;;;;;;8330701;28;20026;-79
2023/08/31 08:39:58;;;;;;;4.07;1.75;;;;;;;;;;8356508;28;20037;-80
2023/08/31 08:44:01;;;;;;;7.82;1.98;;;;;;;;;;8331067;28;20033;-80
2023/08/31 08:48:02;;;;;;;8.55;2.00;;;;;;;;;;8303942;28;20066;-77
2023/08/31 08:52:03;;;;;;;6.70;1.70;;;;;;;;;;8268649;28;20030;-78
2023/08/31 08:56:03;;;;;;;6.65;2.00;;;;;;;;;;8276539;28;20154;-78
2023/08/31 09:00:04;;;;;;;7.00;2.20;;;;;;;;;;8273709;28;20031;-76
2023/08/31 09:04:06;;;;;;;4.97;2.00;;;;;;;;;;8277667;28;20178;-77
2023/08/31 09:08:09;;;;;;;5.65;1.80;;;;;;;;;;8280656;28;20177;-77
2023/08/31 09:12:09;;;;;;;5.78;1.65;;;;;;;;;;8276104;28;20485;-77
2023/08/31 09:16:23;;;;;;;6.90;1.80;;;;;;;;;;8273940;28;20457;-76
2023/08/31 09:20:23;;;;;;;7.50;1.77;;;;;;;;;;8273833;28;20572;-77
2023/08/31 09:24:23;;;;;;;4.55;1.95;;;;;;;;;;8289456;28;20029;-77
2023/08/31 09:28:29;;;;;;;4.75;2.03;;;;;;;;;;8282179;28;20556;-77
2023/08/31 09:32:30;;;;;;;6.95;1.80;;;;;;;;;;8304736;28;20038;-77
2023/08/31 09:36:31;;;;;;;6.28;2.08;;;;;;;;;;8272083;28;20029;-78
2023/08/31 09:40:31;;;;;;;5.78;1.80;;;;;;;;;;8270536;28;20132;-77
2023/08/31 09:44:31;;;;;;;6.20;2.13;;;;;;;;;;8272635;28;20756;-77
2023/08/31 09:48:31;;;;;;;5.15;1.65;;;;;;;;;;8271315;28;20055;-77
2023/08/31 09:52:32;;;;;;;4.97;1.57;;;;;;;;;;8275342;28;20030;-77
2023/08/31 09:56:33;;;;;;;2.35;1.30;;;;;;;;;;8272577;28;20454;-77
2023/08/31 10:00:35;;;;;;;4.85;1.83;;;;;;;;;;8273518;28;20040;-77
2023/08/31 10:04:36;;;;;;;2.92;1.50;;;;;;;;;;8271655;28;20013;-77
2023/08/31 10:08:37;;;;;;;2.47;1.30;;;;;;;;;;8266691;28;20054;-77
2023/08/31 10:12:38;;;;;;;6.72;1.70;;;;;;;;;;8279253;28;20033;-77
2023/08/31 10:16:39;;;;;;;2.97;1.52;;;;;;;;;;8279470;28;20021;-77
2023/08/31 10:20:41;;;;;;;3.20;1.60;;;;;;;;;;8279847;28;20034;-77
2023/08/31 10:25:00;;;;;;;2.67;1.50;;;;;;;;;;8276302;28;20951;-78
2023/08/31 10:29:02;;;;;;;5.38;1.80;;;;;;;;;;8273845;28;20178;-77
2023/08/31 10:33:09;;;;;;;3.10;1.70;;;;;;;;;;8287015;28;20026;-77
2023/08/31 10:37:22;;;;;;;3.15;1.65;;;;;;;;;;8279549;28;20067;-77
2023/08/31 10:58:12;;;;;;;4.00;1.90;;;;;;;;;;8498341;27;20218;-77
2023/08/31 13:00:46;;;;;;;6.65;2.33;;;;;;;;;;10575545;22;20865;-59
2023/08/31 13:04:46;;;;;;;5.88;2.10;;;;;;;;;;10413570;22;1213263;-60
2023/08/31 13:08:46;;;;;;;4.38;2.00;;;;;;;;;;10488198;22;19998;-60
2023/08/31 13:12:46;;;;;;;4.28;1.92;;;;;;;;;;10488508;22;20081;-60
2023/08/31 13:16:46;;;;;;;4.55;1.80;;;;;;;;;;10460396;22;20010;-61
2023/08/31 13:20:50;;;;;;;6.60;2.08;;;;;;;;;;10489238;22;20493;-61
2023/08/31 13:24:51;;;;;;;5.82;2.10;;;;;;;;;;10489829;22;20064;-61
2023/08/31 13:28:51;;;;;;;6.68;2.17;;;;;;;;;;10491914;22;20089;-61
2023/08/31 13:32:51;;;;;;;5.57;2.20;;;;;;;;;;10473903;22;20021;-61
2023/08/31 13:36:51;;;;;;;4.95;1.88;;;;;;;;;;10477683;22;20224;-61
2023/08/31 13:40:56;;;;;;;5.63;2.00;;;;;;;;;;10480219;22;20003;-61
2023/08/31 13:44:56;;;;;;;5.32;2.00;;;;;;;;;;10479182;22;20059;-61
2023/08/31 13:48:57;;;;;;;7.10;2.17;;;;;;;;;;10478031;22;19998;-61
2023/08/31 13:52:57;;;;;;;6.63;2.07;;;;;;;;;;10448520;22;20772;-61
2023/08/31 13:56:57;;;;;;;6.32;2.17;;;;;;;;;;10426327;22;20982;-62
2023/08/31 14:01:00;;;;;;;5.15;2.03;;;;;;;;;;10425965;22;20471;-62
2023/08/31 14:05:02;;;;;;;6.10;2.27;;;;;;;;;;10413889;22;20096;-62
2023/08/31 14:09:02;;;;;;;8.52;2.50;;;;;;;;;;10424759;22;20222;-62
2023/08/31 14:13:03;;;;;;;6.25;1.95;;;;;;;;;;10428399;22;19991;-61
2023/08/31 14:17:03;;;;;;;5.78;2.22;;;;;;;;;;10430248;22;20066;-61
2023/08/31 14:21:03;;;;;;;6.20;1.90;;;;;;;;;;10430934;22;20075;-62
2023/08/31 14:25:04;;;;;;;4.57;1.88;;;;;;;;;;10430363;22;20221;-61
2023/08/31 14:29:04;;;;;;;4.05;1.83;;;;;;;;;;10428711;22;20053;-62
2023/08/31 14:33:05;;;;;;;3.93;2.10;;;;;;;;;;10426221;22;20955;-61
2023/08/31 14:37:06;;;;;;;3.88;1.95;;;;;;;;;;10391939;22;20551;-62
2023/08/31 14:41:07;;;;;;;4.95;2.13;;;;;;;;;;10423305;22;20003;-61
2023/08/31 14:45:07;;;;;;;5.50;2.00;;;;;;;;;;10398281;22;20018;-62
2023/08/31 14:49:07;;;;;;;5.25;2.20;;;;;;;;;;10426549;22;20056;-62
2023/08/31 14:53:08;;;;;;;6.55;2.00;;;;;;;;;;10430861;22;20002;-62
2023/08/31 14:57:08;;;;;;;5.57;2.07;;;;;;;;;;10428890;22;20003;-62
2023/08/31 15:01:08;;;;;;;5.20;2.10;;;;;;;;;;10428074;22;20446;-62
2023/08/31 15:05:09;;;;;;;4.03;1.80;;;;;;;;;;10432984;22;20010;-62
2023/08/31 15:09:09;;;;;;;4.47;2.17;;;;;;;;;;10399845;22;20431;-62
2023/08/31 15:13:10;;;;;;;4.32;2.10;;;;;;;;;;10429566;22;19994;-62
2023/08/31 15:17:10;;;;;;;4.93;1.90;;;;;;;;;;10428933;22;20815;-63
2023/08/31 15:21:10;;;;;;;4.13;1.83;;;;;;;;;;10427339;22;20045;-63
2023/08/31 15:25:10;;;;;;;6.20;2.13;;;;;;;;;;10426260;22;20070;-59
2023/08/31 15:29:11;;;;;;;6.68;2.13;;;;;;;;;;10427743;22;20113;-62
2023/08/31 15:33:11;;;;;;;4.68;2.17;;;;;;;;;;10426849;22;20019;-62
2023/08/31 15:37:12;;;;;;;5.35;2.20;;;;;;;;;;10428381;22;20040;-60
2023/08/31 15:41:13;;;;;;;5.10;2.00;;;;;;;;;;10429538;22;19999;-60
2023/08/31 15:45:14;;;;;;;4.45;2.00;;;;;;;;;;10430326;22;20865;-62
2023/08/31 15:49:14;;;;;;;5.37;2.10;;;;;;;;;;10429109;22;20576;-62
2023/08/31 15:53:14;;;;;;;5.80;2.25;;;;;;;;;;10432686;22;20222;-62
2023/08/31 15:57:14;;;;;;;5.13;2.20;;;;;;;;;;10404142;22;20007;-62
2023/08/31 16:01:15;;;;;;;5.60;2.03;;;;;;;;;;10423152;22;20026;-61
2023/08/31 16:05:17;;;;;;;5.77;2.00;;;;;;;;;;10429456;22;20037;-62
2023/08/31 16:09:18;;;;;;;3.33;2.17;;;;;;;;;;10424826;22;20614;-62
2023/08/31 16:13:18;;;;;;;6.13;2.10;;;;;;;;;;10428302;22;20032;-59
2023/08/31 16:17:18;;;;;;;6.57;2.30;;;;;;;;;;10430228;22;20011;-61
2023/08/31 16:21:19;;;;;;;4.73;2.10;;;;;;;;;;10421504;22;20839;-62
2023/08/31 16:25:19;;;;;;;7.03;2.33;;;;;;;;;;10425889;22;20310;-62
2023/08/31 16:29:19;;;;;;;5.95;2.13;;;;;;;;;;10423881;22;19995;-63
2023/08/31 16:33:20;;;;;;;6.55;2.30;;;;;;;;;;10426517;22;20601;-61
2023/08/31 16:37:20;;;;;;;4.90;2.08;;;;;;;;;;10426772;22;19999;-62
2023/08/31 16:41:20;;;;;;;6.00;2.20;;;;;;;;;;10425694;22;19999;-61
2023/08/31 16:45:21;;;;;;;4.72;1.90;;;;;;;;;;10426667;22;19991;-62
2023/08/31 16:49:22;;;;;;;5.75;2.17;;;;;;;;;;10421948;22;20070;-62
2023/08/31 16:53:22;;;;;;;5.60;2.15;;;;;;;;;;10419984;22;20010;-62
2023/08/31 16:57:23;;;;;;;5.15;2.00;;;;;;;;;;10395452;22;20014;-61
2023/08/31 17:01:23;;;;;;;5.47;2.15;;;;;;;;;;10418237;22;20025;-61
2023/08/31 17:05:23;;;;;;;4.72;2.10;;;;;;;;;;10393579;22;20011;-61
2023/08/31 17:09:24;;;;;;;5.80;2.20;;;;;;;;;;10422100;22;20013;-61
2023/08/31 17:13:24;;;;;;;4.70;2.20;;;;;;;;;;10425491;22;19999;-61
2023/08/31 17:17:27;;;;;;;5.87;2.13;;;;;;;;;;10423429;22;20104;-61
2023/08/31 17:21:28;;;;;;;6.43;3.47;;;;;;;;;;10424454;22;20077;-62
2023/08/31 17:25:28;;;;;;;5.33;1.90;;;;;;;;;;10425747;22;20006;-61
2023/08/31 17:29:28;;;;;;;5.38;2.10;;;;;;;;;;10422684;22;20225;-62
2023/08/31 17:33:29;;;;;;;7.47;2.22;;;;;;;;;;10425126;22;20143;-61
2023/08/31 17:37:29;;;;;;;7.20;2.40;;;;;;;;;;10424611;22;20003;-61
2023/08/31 17:41:30;;;;;;;5.65;2.10;;;;;;;;;;10397319;22;20100;-62
2023/08/31 17:45:30;;;;;;;4.60;2.23;;;;;;;;;;10422875;22;20012;-62
2023/08/31 17:49:30;;;;;;;3.38;1.70;;;;;;;;;;10421501;22;20737;-62
2023/08/31 17:53:31;;;;;;;6.28;2.05;;;;;;;;;;10425840;22;20007;-64
2023/08/31 17:57:31;;;;;;;4.50;1.83;;;;;;;;;;10422691;22;19995;-62
2023/08/31 18:01:32;;;;;;;7.70;2.35;;;;;;;;;;10416364;22;20065;-62
2023/08/31 18:05:32;;;;;;;5.38;2.17;;;;;;;;;;10426169;22;20745;-63
2023/08/31 18:09:36;;;;;;;13.35;2.33;;;;;;;;;;10421630;22;20010;-62
2023/08/31 18:13:37;;;;;;;4.68;1.92;;;;;;;;;;10421149;22;19995;-62
2023/08/31 18:17:37;;;;;;;6.60;2.30;;;;;;;;;;10393286;22;20416;-63
2023/08/31 18:21:37;;;;;;;6.60;2.47;;;;;;;;;;10420501;22;20709;-63
2023/08/31 18:25:37;;;;;;;7.63;2.17;;;;;;;;;;10390621;22;20029;-62
2023/08/31 18:29:38;;;;;;;7.72;2.28;;;;;;;;;;10426875;22;20404;-63
2023/08/31 18:33:38;;;;;;;8.97;2.17;;;;;;;;;;10423030;22;20030;-63
2023/08/31 18:37:39;;;;;;;7.03;2.60;;;;;;;;;;10423588;22;19999;-62
2023/08/31 18:41:39;;;;;;;7.95;2.65;;;;;;;;;;10397023;22;20711;-62
2023/08/31 18:45:43;;;;;;;6.03;2.50;;;;;;;;;;10424959;22;20007;-62
2023/08/31 18:49:43;;;;;;;5.32;2.28;;;;;;;;;;10425137;22;20003;-61
2023/08/31 18:53:44;;;;;;;6.93;2.50;;;;;;;;;;10422166;22;20003;-62
2023/08/31 18:57:44;;;;;;;7.00;2.70;;;;;;;;;;10427522;22;20009;-62
2023/08/31 19:01:44;;;;;;;3.90;2.27;;;;;;;;;;10421495;22;20091;-62
2023/08/31 19:05:46;;;;;;;5.05;2.08;;;;;;;;;;10421427;22;20228;-62
2023/08/31 19:09:46;;;;;;;6.82;2.10;;;;;;;;;;10420883;22;20021;-62
2023/08/31 19:13:49;;;;;;;3.65;2.05;;;;;;;;;;10426110;22;20526;-63
2023/08/31 19:17:49;;;;;;;4.38;2.10;;;;;;;;;;10396177;22;20007;-63
2023/08/31 19:21:50;;;;;;;3.90;1.92;;;;;;;;;;10423722;22;20045;-63
2023/08/31 19:25:58;;;;;;;6.18;2.38;;;;;;;;;;10423320;22;20094;-62
2023/08/31 19:29:58;;;;;;;6.95;2.40;;;;;;;;;;10420333;22;20002;-62
2023/08/31 19:33:59;;;;;;;3.55;2.10;;;;;;;;;;10392349;22;20126;-63
2023/08/31 19:37:59;;;;;;;5.78;2.05;;;;;;;;;;10421584;22;20109;-62
2023/08/31 19:41:59;;;;;;;5.45;2.30;;;;;;;;;;10394207;22;20002;-63
2023/08/31 19:45:59;;;;;;;6.77;2.43;;;;;;;;;;10424862;22;20030;-62
2023/08/31 19:50:00;;;;;;;5.40;2.17;;;;;;;;;;10418683;22;20545;-63
2023/08/31 19:54:04;;;;;;;3.53;2.08;;;;;;;;;;10423528;22;20007;-62
2023/08/31 19:58:04;;;;;;;3.83;2.03;;;;;;;;;;10425151;22;20196;-62
2023/08/31 20:02:04;;;;;;;3.60;2.13;;;;;;;;;;10417877;22;20023;-62
2023/08/31 20:06:05;;;;;;;3.35;1.70;;;;;;;;;;10421631;22;20010;-63
2023/08/31 20:10:05;;;;;;;3.38;2.03;;;;;;;;;;10423614;22;20041;-63
2023/08/31 20:14:06;;;;;;;4.53;2.08;;;;;;;;;;10415613;22;20052;-63
2023/08/31 20:18:06;;;;;;;4.72;2.20;;;;;;;;;;10422646;22;20007;-63
2023/08/31 20:22:06;;;;;;;2.95;1.73;;;;;;;;;;10420076;22;20003;-63
2023/08/31 20:26:08;;;;;;;4.88;1.98;;;;;;;;;;10426786;22;20007;-63
2023/08/31 20:30:10;;;;;;;3.90;2.08;;;;;;;;;;10419561;22;20003;-63
2023/08/31 20:34:13;;;;;;;5.10;2.13;;;;;;;;;;10423263;22;20010;-62
2023/08/31 20:38:14;;;;;;;5.15;2.20;;;;;;;;;;10422898;22;20157;-63
2023/08/31 20:42:14;;;;;;;3.75;2.00;;;;;;;;;;10421595;22;20073;-63
2023/08/31 20:46:14;;;;;;;3.13;2.05;;;;;;;;;;10413567;22;20055;-63
2023/08/31 20:50:15;;;;;;;2.75;1.77;;;;;;;;;;10424771;22;20010;-63
2023/08/31 20:54:15;;;;;;;3.35;1.90;;;;;;;;;;10421617;22;20094;-63
2023/08/31 20:58:15;;;;;;;4.20;2.03;;;;;;;;;;10425768;22;20006;-63
2023/08/31 21:02:17;;;;;;;3.47;1.80;;;;;;;;;;10422840;22;20095;-63
2023/08/31 21:06:17;;;;;;;3.75;1.90;;;;;;;;;;10426114;22;20030;-63
2023/08/31 21:10:18;;;;;;;2.05;1.70;;;;;;;;;;10425861;22;20018;-63
2023/08/31 21:14:18;;;;;;;4.07;1.53;;;;;;;;;;10428552;22;20025;-62
2023/08/31 21:18:18;;;;;;;1.98;1.50;;;;;;;;;;10423759;22;20053;-63
2023/08/31 21:22:18;;;;;;;2.70;1.88;;;;;;;;;;10425375;22;20074;-63
2023/08/31 21:26:18;;;;;;;3.25;1.80;;;;;;;;;;10418900;22;20056;-63
2023/08/31 21:30:19;;;;;;;2.17;1.50;;;;;;;;;;10420096;22;20030;-63
2023/08/31 21:34:19;;;;;;;1.60;1.50;;;;;;;;;;10419749;22;19999;-62
2023/08/31 21:38:19;;;;;;;3.30;1.60;;;;;;;;;;10419663;22;20068;-63
2023/08/31 21:42:20;;;;;;;4.30;1.73;;;;;;;;;;10418849;22;19999;-63
2023/08/31 21:46:21;;;;;;;3.47;1.75;;;;;;;;;;10418736;22;20606;-63
2023/08/31 21:50:23;;;;;;;2.03;1.85;;;;;;;;;;10417000;22;20489;-63
2023/08/31 21:54:23;;;;;;;2.28;1.88;;;;;;;;;;10418356;22;20007;-63
2023/08/31 21:58:24;;;;;;;2.33;1.95;;;;;;;;;;10415279;22;20887;-63
2023/08/31 22:02:24;;;;;;;2.15;1.92;;;;;;;;;;10415007;22;20101;-63
2023/08/31 22:06:25;;;;;;;2.42;2.08;;;;;;;;;;10424816;22;20002;-63
2023/08/31 22:10:25;;;;;;;2.25;2.00;;;;;;;;;;10426902;22;20002;-63
2023/08/31 22:14:25;;;;;;;2.45;1.90;;;;;;;;;;10427579;22;20070;-64
2023/08/31 22:18:27;;;;;;;4.97;2.00;;;;;;;;;;10429126;22;20018;-62
2023/08/31 22:22:27;;;;;;;4.07;2.30;;;;;;;;;;10426360;22;20398;-62
2023/08/31 22:26:27;;;;;;;3.50;2.20;;;;;;;;;;10431340;22;20018;-61
2023/08/31 22:30:28;;;;;;;2.60;1.80;;;;;;;;;;10430621;22;20853;-61
2023/08/31 22:34:29;;;;;;;3.22;2.22;;;;;;;;;;10432004;22;20852;-61
2023/08/31 22:38:29;;;;;;;3.75;1.80;;;;;;;;;;10429674;22;20106;-61
2023/08/31 22:42:29;;;;;;;1.63;1.52;;;;;;;;;;10427194;22;20060;-61
2023/08/31 22:46:29;;;;;;;1.60;1.50;;;;;;;;;;10430940;22;20011;-61
2023/08/31 22:50:30;;;;;;;2.13;1.70;;;;;;;;;;10429299;22;20006;-62
2023/08/31 22:54:30;;;;;;;1.67;1.33;;;;;;;;;;10429693;22;19994;-61
2023/08/31 22:58:30;;;;;;;1.75;1.50;;;;;;;;;;10432421;22;20049;-63
2023/08/31 23:02:30;;;;;;;1.55;1.45;;;;;;;;;;10428921;22;20019;-62
2023/08/31 23:06:32;;;;;;;1.60;1.50;;;;;;;;;;10431637;22;20097;-62
2023/08/31 23:10:32;;;;;;;2.65;1.60;;;;;;;;;;10401025;22;20046;-63
2023/08/31 23:14:32;;;;;;;1.70;1.58;;;;;;;;;;10430065;22;20010;-62
2023/08/31 23:18:33;;;;;;;2.73;1.70;;;;;;;;;;10431484;22;20440;-62
2023/08/31 23:22:34;;;;;;;10.02;2.00;;;;;;;;;;10428188;22;20977;-62
2023/08/31 23:26:34;;;;;;;3.70;2.00;;;;;;;;;;10403033;22;20033;-62
2023/08/31 23:30:35;;;;;;;3.53;2.05;;;;;;;;;;10427923;22;20007;-62
2023/08/31 23:34:35;;;;;;;3.93;1.87;;;;;;;;;;10428209;22;20014;-63
2023/08/31 23:38:35;;;;;;;2.42;2.17;;;;;;;;;;10428626;22;20217;-62
2023/08/31 23:42:36;;;;;;;38.57;3.20;;;;;;;;;;10427794;22;20041;-63
2023/08/31 23:46:36;;;;;;;8.85;2.50;;;;;;;;;;10431759;22;20306;-62
2023/08/31 23:50:36;;;;;;;4.47;2.37;;;;;;;;;;10422901;22;20013;-62
2023/08/31 23:54:36;;;;;;;3.38;2.40;;;;;;;;;;10427317;22;20217;-62
2023/08/31 23:58:36;;;;;;;10.10;3.53;;;;;;;;;;10430366;22;19999;-62
